Wisconsin Rapids, Wisconsin
Current Conditions -  °F | °C
As of 2:12 AM on Thursday 18 Dec 2014 (Local Time) from KISW Reporting Station
Overcast Overcast  
Wind Chill: -6°   Ceiling: 1400
Heat Index: -6°   Visibility: 10mi
Dew Point: -10°   Wind: 3mph
Humidity: 74%   Direction: 350°N
Pressure: 30.28"   Gusts: NA
Location:  44.39°N, 89.82°W
Report Text: KISW 180812Z AUTO 35003KT 10SM OVC014 M06/M10 A3028 RMK AO2 T10611100
Loading
Personal Weather Stations






























Interactive Weather Map New forecast layout! Learn more

10-Day Weather Forecast

Advertisements
Track Severe Weather on mobile